Time;durP1;ratioP1;P1;durP2;ratioP2;P2;SDS_P1;SDS_P2;PMS_P1;PMS_P2;Temp;Humidity;BMP_temperature;BMP_pressure;BME280_temperature;BME280_humidity;BME280_pressure;Samples;Min_cycle;Max_cycle;Signal;HPM_P1;HPM_P2
2022/12/09 00:01:40;;;;;;;;;;;;;;;0.05;100.00;100684.00;6216469;23;20283;-85
2022/12/09 00:04:05;;;;;;;;;;;;;;;0.06;100.00;100682.28;6215740;23;19954;-85
2022/12/09 00:06:32;;;;;;;;;;;;;;;0.07;100.00;100678.91;6216297;23;20304;-85
2022/12/09 00:08:57;;;;;;;;;;;;;;;0.07;100.00;100679.78;6215500;23;20323;-85
2022/12/09 00:11:22;;;;;;;;;;;;;;;0.09;100.00;100675.50;6216563;23;19912;-85
2022/12/09 00:13:52;;;;;;;;;;;;;;;0.11;100.00;100673.00;6216994;23;19912;-85
2022/12/09 00:16:18;;;;;;;;;;;;;;;0.11;100.00;100678.97;6215866;23;19912;-85
2022/12/09 00:18:43;;;;;;;;;;;;;;;0.10;100.00;100673.81;6216436;23;19939;-84
2022/12/09 00:21:17;;;;;;;;;;;;;;;0.11;100.00;100678.13;6217132;23;19912;-85
2022/12/09 00:23:43;;;;;;;;;;;;;;;0.12;100.00;100678.13;6215505;23;19994;-84
2022/12/09 00:26:08;;;;;;;;;;;;;;;0.13;100.00;100676.41;6216627;23;19944;-85
2022/12/09 00:28:34;;;;;;;;;;;;;;;0.15;100.00;100677.31;6216005;23;19912;-85
2022/12/09 00:30:59;;;;;;;;;;;;;;;0.16;100.00;100677.38;6215509;23;19912;-85
2022/12/09 00:33:25;;;;;;;;;;;;;;;0.16;100.00;100676.47;6216664;23;19924;-85
2022/12/09 00:35:50;;;;;;;;;;;;;;;0.15;100.00;100680.75;6216064;23;19940;-84
2022/12/09 00:38:15;;;;;;;;;;;;;;;0.17;100.00;100680.78;6215627;23;19912;-84
2022/12/09 00:40:40;;;;;;;;;;;;;;;0.18;100.00;100675.66;6215632;23;19951;-85
2022/12/09 00:43:05;;;;;;;;;;;;;;;0.19;100.00;100679.94;6214573;23;20499;-84
2022/12/09 00:45:31;;;;;;;;;;;;;;;0.20;100.00;100670.59;6214028;23;20007;-85
2022/12/09 00:47:56;;;;;;;;;;;;;;;0.21;100.00;100680.00;6215799;23;19912;-84
2022/12/09 00:50:21;;;;;;;;;;;;;;;0.21;100.00;100677.44;6215593;23;19912;-84
2022/12/09 00:52:46;;;;;;;;;;;;;;;0.23;100.00;100678.31;6215798;23;19948;-84
2022/12/09 00:55:12;;;;;;;;;;;;;;;0.23;100.00;100671.50;6216184;23;19920;-85
2022/12/09 00:57:38;;;;;;;;;;;;;;;0.23;100.00;100679.19;6214704;23;19912;-84
2022/12/09 01:00:04;;;;;;;;;;;;;;;0.24;100.00;100674.91;6216345;23;19912;-85
2022/12/09 01:02:29;;;;;;;;;;;;;;;0.28;100.00;100680.94;6216197;23;19982;-84
2022/12/09 01:04:54;;;;;;;;;;;;;;;0.28;100.00;100675.81;6215867;23;19923;-84
2022/12/09 01:07:19;;;;;;;;;;;;;;;0.26;100.00;100673.22;6214822;23;19935;-85
2022/12/09 01:09:45;;;;;;;;;;;;;;;0.26;100.00;100669.78;6216095;23;19943;-85
2022/12/09 01:12:10;;;;;;;;;;;;;;;0.26;100.00;100680.06;6215094;23;19998;-85
2022/12/09 01:14:35;;;;;;;;;;;;;;;0.26;100.00;100672.34;6216314;23;19915;-85
2022/12/09 01:17:00;;;;;;;;;;;;;;;0.26;100.00;100678.34;6216032;23;19912;-85
2022/12/09 01:19:25;;;;;;;;;;;;;;;0.27;100.00;100680.09;6214862;23;19912;-85
2022/12/09 01:21:54;;;;;;;;;;;;;;;0.28;100.00;100680.94;6216273;23;19908;-85
2022/12/09 01:24:19;;;;;;;;;;;;;;;0.28;100.00;100683.50;6215937;23;19912;-85
2022/12/09 01:26:44;;;;;;;;;;;;;;;0.28;100.00;100679.25;6215130;23;20291;-85
2022/12/09 01:29:09;;;;;;;;;;;;;;;0.27;100.00;100687.78;6215691;23;20213;-85
2022/12/09 01:31:35;;;;;;;;;;;;;;;0.29;100.00;100685.22;6215866;23;19967;-84
2022/12/09 01:34:00;;;;;;;;;;;;;;;0.30;100.00;100679.28;6214807;23;20003;-85
2022/12/09 01:36:26;;;;;;;;;;;;;;;0.29;100.00;100690.34;6215402;23;19912;-85
2022/12/09 01:38:52;;;;;;;;;;;;;;;0.31;100.00;100692.13;6215762;23;19970;-84
2022/12/09 01:41:18;;;;;;;;;;;;;;;0.33;100.00;100685.31;6214194;23;19916;-84
2022/12/09 01:43:43;;;;;;;;;;;;;;;0.36;100.00;100684.47;6216126;23;19920;-85
2022/12/09 01:46:08;;;;;;;;;;;;;;;0.35;100.00;100691.31;6215803;23;19916;-85
2022/12/09 01:48:36;;;;;;;;;;;;;;;0.34;100.00;100688.75;6215140;23;20293;-84
2022/12/09 01:51:10;;;;;;;;;;;;;;;0.33;100.00;100685.31;6215095;23;19970;-85
2022/12/09 01:53:37;;;;;;;;;;;;;;;0.34;100.00;100686.19;6215322;23;19927;-84
2022/12/09 01:56:06;;;;;;;;;;;;;;;0.35;100.00;100693.88;6215168;23;20286;-84
2022/12/09 01:58:31;;;;;;;;;;;;;;;0.36;100.00;100681.91;6215310;23;20221;-84
2022/12/09 02:00:56;;;;;;;;;;;;;;;0.37;100.00;100686.22;6214492;23;19952;-84
2022/12/09 02:03:21;;;;;;;;;;;;;;;0.37;100.00;100683.66;6215267;23;19982;-84
2022/12/09 02:05:47;;;;;;;;;;;;;;;0.39;100.00;100684.53;6214861;23;20316;-85
2022/12/09 02:08:14;;;;;;;;;;;;;;;0.39;100.00;100687.09;6214068;23;19939;-85
2022/12/09 02:10:45;;;;;;;;;;;;;;;0.40;100.00;100687.13;6214838;23;19919;-84
2022/12/09 02:13:21;;;;;;;;;;;;;;;0.40;100.00;100683.72;6214838;23;19927;-85
2022/12/09 02:15:49;;;;;;;;;;;;;;;0.40;100.00;100688.84;6214669;23;19912;-85
2022/12/09 02:18:20;;;;;;;;;;;;;;;0.40;100.00;100688.84;6215590;23;19964;-85
2022/12/09 02:20:52;;;;;;;;;;;;;;;0.39;100.00;100684.53;6215198;23;19916;-85
2022/12/09 02:23:22;;;;;;;;;;;;;;;0.40;100.00;100686.28;6214768;23;19942;-84
2022/12/09 02:25:56;;;;;;;;;;;;;;;0.40;100.00;100688.84;6215557;23;19986;-84
2022/12/09 02:28:21;;;;;;;;;;;;;;;0.39;100.00;100690.56;6215756;23;19911;-85
2022/12/09 02:31:04;;;;;;;;;;;;;;;0.40;100.00;100682.00;6214485;23;20351;-85
2022/12/09 02:33:37;;;;;;;;;;;;;;;0.41;100.00;100685.44;6215511;23;20667;-84
2022/12/09 02:36:06;;;;;;;;;;;;;;;0.40;100.00;100682.00;6214835;23;19919;-84
2022/12/09 02:38:32;;;;;;;;;;;;;;;0.41;100.00;100688.00;6214984;23;19908;-84
2022/12/09 02:41:00;;;;;;;;;;;;;;;0.42;100.00;100684.56;6214997;23;19912;-84
2022/12/09 02:43:29;;;;;;;;;;;;;;;0.42;100.00;100676.88;6213916;23;19962;-84
2022/12/09 02:45:56;;;;;;;;;;;;;;;0.41;100.00;100681.16;6215103;23;19955;-84
2022/12/09 02:48:24;;;;;;;;;;;;;;;0.42;100.00;100676.88;6214893;23;19916;-85
2022/12/09 02:50:51;;;;;;;;;;;;;;;0.42;100.00;100679.44;6213606;23;20387;-85
2022/12/09 02:53:17;;;;;;;;;;;;;;;0.43;100.00;100668.38;6215094;23;20320;-85
2022/12/09 02:55:43;;;;;;;;;;;;;;;0.44;100.00;100672.66;6215430;23;19912;-84
2022/12/09 02:58:09;;;;;;;;;;;;;;;0.46;100.00;100665.84;6213809;23;20292;-85
2022/12/09 03:00:34;;;;;;;;;;;;;;;0.47;100.00;100671.00;6214272;23;19912;-84
2022/12/09 03:03:03;;;;;;;;;;;;;;;0.49;100.00;100672.72;6215189;23;19912;-85
2022/12/09 03:05:32;;;;;;;;;;;;;;;0.47;100.00;100671.00;6214740;23;19943;-85
2022/12/09 03:07:58;;;;;;;;;;;;;;;0.47;100.00;100670.13;6217612;23;19912;-85
2022/12/09 03:10:26;;;;;;;;;;;;;;;0.46;100.00;100671.84;6217015;23;20344;-84
2022/12/09 03:12:58;;;;;;;;;;;;;;;0.47;100.00;100670.13;6216857;23;20322;-84
2022/12/09 03:15:26;;;;;;;;;;;;;;;0.45;100.00;100670.09;6217724;23;19987;-85
2022/12/09 03:17:52;;;;;;;;;;;;;;;0.47;100.00;100662.44;6217261;23;19912;-85
2022/12/09 03:20:22;;;;;;;;;;;;;;;0.48;100.00;100664.16;6217068;23;19912;-85
2022/12/09 03:22:48;;;;;;;;;;;;;;;0.49;100.00;100657.31;6216621;23;19918;-84
2022/12/09 03:25:16;;;;;;;;;;;;;;;0.49;100.00;100655.66;6215855;23;19911;-85
2022/12/09 03:27:45;;;;;;;;;;;;;;;0.48;100.00;100656.47;6216531;23;19912;-85
2022/12/09 03:30:10;;;;;;;;;;;;;;;0.47;100.00;100652.19;6216605;23;19947;-85
2022/12/09 03:32:37;;;;;;;;;;;;;;;0.48;100.00;100643.63;6216656;23;20267;-85
2022/12/09 03:35:07;;;;;;;;;;;;;;;0.47;100.00;100647.06;6217139;23;19912;-85
2022/12/09 03:37:33;;;;;;;;;;;;;;;0.48;100.00;100643.63;6217193;23;19919;-84
2022/12/09 03:39:59;;;;;;;;;;;;;;;0.50;100.00;100652.22;6215255;23;19945;-84
2022/12/09 03:42:33;;;;;;;;;;;;;;;0.51;100.00;100637.69;6216816;23;20400;-84
2022/12/09 03:45:01;;;;;;;;;;;;;;;0.51;100.00;100638.56;6217408;23;19945;-86
2022/12/09 03:47:26;;;;;;;;;;;;;;;0.52;100.00;100642.84;6216269;23;19935;-85
2022/12/09 03:49:52;;;;;;;;;;;;;;;0.52;100.00;100639.41;6216145;23;19916;-85
2022/12/09 03:52:17;;;;;;;;;;;;;;;0.53;100.00;100641.16;6216329;23;20324;-85
2022/12/09 03:54:46;;;;;;;;;;;;;;;0.52;100.00;100645.41;6215677;23;19934;-85
2022/12/09 03:57:16;;;;;;;;;;;;;;;0.53;100.00;100639.44;6216855;23;19915;-85
2022/12/09 03:59:42;;;;;;;;;;;;;;;0.54;100.00;100643.72;6217018;23;19919;-85
2022/12/09 04:02:07;;;;;;;;;;;;;;;0.53;100.00;100649.72;6216059;23;19908;-85
2022/12/09 04:04:33;;;;;;;;;;;;;;;0.54;100.00;100643.72;6216805;23;20206;-85
2022/12/09 04:06:59;;;;;;;;;;;;;;;0.56;100.00;100636.06;6216565;23;19990;-85
2022/12/09 04:09:24;;;;;;;;;;;;;;;0.56;100.00;100639.50;6216245;23;19912;-85
2022/12/09 04:11:50;;;;;;;;;;;;;;;0.56;100.00;100639.50;6214620;23;20351;-85
2022/12/09 04:14:15;;;;;;;;;;;;;;;0.55;100.00;100640.31;6215612;23;19962;-85
2022/12/09 04:16:40;;;;;;;;;;;;;;;0.55;100.00;100635.19;6216578;23;19912;-85
2022/12/09 04:19:06;;;;;;;;;;;;;;;0.57;100.00;100635.22;6216135;23;19912;-85
2022/12/09 04:21:31;;;;;;;;;;;;;;;0.57;100.00;100636.06;6215401;23;19948;-85
2022/12/09 04:23:56;;;;;;;;;;;;;;;0.57;100.00;100633.50;6216399;23;19995;-85
2022/12/09 04:26:21;;;;;;;;;;;;;;;0.57;100.00;100632.66;6216194;23;19938;-84
2022/12/09 04:28:47;;;;;;;;;;;;;;;0.57;100.00;100633.50;6215824;23;19908;-85
2022/12/09 04:31:13;;;;;;;;;;;;;;;0.56;100.00;100626.66;6215518;23;19919;-85
2022/12/09 04:33:39;;;;;;;;;;;;;;;0.55;100.00;100624.91;6216868;23;19912;-85
2022/12/09 04:36:05;;;;;;;;;;;;;;;0.55;100.00;100630.06;6216136;23;19943;-84
2022/12/09 04:38:31;;;;;;;;;;;;;;;0.55;100.00;100632.63;6216350;23;19966;-85
2022/12/09 04:40:58;;;;;;;;;;;;;;;0.56;100.00;100634.38;6215700;23;20312;-85
2022/12/09 04:43:23;;;;;;;;;;;;;;;0.57;100.00;100624.97;6215589;23;19916;-85
2022/12/09 04:45:48;;;;;;;;;;;;;;;0.57;100.00;100633.50;6216880;23;19919;-85
2022/12/09 04:48:13;;;;;;;;;;;;;;;0.56;100.00;100624.09;6216178;23;19908;-86
2022/12/09 04:50:39;;;;;;;;;;;;;;;0.56;100.00;100629.22;6214837;23;20379;-86
2022/12/09 04:53:04;;;;;;;;;;;;;;;0.56;100.00;100629.22;6215897;23;19919;-85
2022/12/09 04:55:29;;;;;;;;;;;;;;;0.58;100.00;100629.25;6216344;23;19916;-85
2022/12/09 04:57:54;;;;;;;;;;;;;;;0.57;100.00;100633.50;6215359;23;20347;-85
2022/12/09 05:00:20;;;;;;;;;;;;;;;0.57;100.00;100628.38;6215540;23;19987;-85
2022/12/09 05:02:45;;;;;;;;;;;;;;;0.57;100.00;100627.53;6216640;23;19920;-85
2022/12/09 05:05:10;;;;;;;;;;;;;;;0.58;100.00;100631.81;6214879;23;20317;-85
2022/12/09 05:07:36;;;;;;;;;;;;;;;0.57;100.00;100633.50;6216310;23;19912;-85
2022/12/09 05:10:01;;;;;;;;;;;;;;;0.57;100.00;100632.66;6215960;23;19911;-86
2022/12/09 05:12:26;;;;;;;;;;;;;;;0.57;100.00;100622.41;6214472;23;19934;-86
2022/12/09 05:14:51;;;;;;;;;;;;;;;0.56;100.00;100634.38;6216442;23;20309;-86
2022/12/09 05:17:17;;;;;;;;;;;;;;;0.56;100.00;100638.63;6215667;23;19912;-85
2022/12/09 05:19:42;;;;;;;;;;;;;;;0.53;100.00;100631.75;6215890;23;19915;-85
2022/12/09 05:22:07;;;;;;;;;;;;;;;0.55;100.00;100627.47;6214262;23;19919;-85
2022/12/09 05:24:32;;;;;;;;;;;;;;;0.54;100.00;100625.78;6215094;23;19966;-86
2022/12/09 05:26:58;;;;;;;;;;;;;;;0.54;100.00;100628.34;6216274;23;20332;-85
2022/12/09 05:29:23;;;;;;;;;;;;;;;0.54;100.00;100635.19;6216174;23;19963;-85
2022/12/09 05:31:50;;;;;;;;;;;;;;;0.53;100.00;100631.75;6215189;23;20343;-86
2022/12/09 05:34:15;;;;;;;;;;;;;;;0.55;100.00;100635.19;6215040;23;19920;-85
2022/12/09 05:36:40;;;;;;;;;;;;;;;0.54;100.00;100630.91;6216080;23;19912;-86
2022/12/09 05:39:05;;;;;;;;;;;;;;;0.53;100.00;100636.03;6215574;23;20003;-86
2022/12/09 05:41:30;;;;;;;;;;;;;;;0.53;100.00;100639.44;6215100;23;20236;-85
2022/12/09 05:43:56;;;;;;;;;;;;;;;0.53;100.00;100641.16;6215401;23;19943;-84
2022/12/09 05:46:21;;;;;;;;;;;;;;;0.53;100.00;100636.88;6215031;23;19912;-84
2022/12/09 05:48:46;;;;;;;;;;;;;;;0.53;100.00;100641.16;6215691;23;19912;-85
2022/12/09 05:51:25;;;;;;;;;;;;;;;0.52;100.00;100632.56;6215089;23;19947;-85
2022/12/09 05:53:50;;;;;;;;;;;;;;;0.53;100.00;100628.34;6214797;23;19912;-85
2022/12/09 05:56:17;;;;;;;;;;;;;;;0.53;100.00;100626.63;6215137;23;19986;-85
2022/12/09 05:58:42;;;;;;;;;;;;;;;0.51;100.00;100628.28;6216051;23;19959;-85
2022/12/09 06:01:08;;;;;;;;;;;;;;;0.51;100.00;100632.56;6214996;23;19916;-85
2022/12/09 06:03:33;;;;;;;;;;;;;;;0.50;100.00;100629.16;6215400;23;19987;-85
2022/12/09 06:05:58;;;;;;;;;;;;;;;0.49;100.00;100626.53;6215741;23;19919;-85
2022/12/09 06:08:23;;;;;;;;;;;;;;;0.48;100.00;100630.81;6214360;23;19922;-85
2022/12/09 06:10:49;;;;;;;;;;;;;;;0.46;100.00;100628.25;6215711;23;19995;-85
2022/12/09 06:13:14;;;;;;;;;;;;;;;0.47;100.00;100623.97;6215482;23;19995;-85
2022/12/09 06:15:39;;;;;;;;;;;;;;;0.49;100.00;100623.97;6215010;23;19963;-85
2022/12/09 06:18:04;;;;;;;;;;;;;;;0.48;100.00;100628.25;6214922;23;19943;-85
2022/12/09 06:20:30;;;;;;;;;;;;;;;0.49;100.00;100618.84;6214093;23;19915;-85
2022/12/09 06:22:55;;;;;;;;;;;;;;;0.47;100.00;100623.97;6215618;23;19943;-85
2022/12/09 06:25:20;;;;;;;;;;;;;;;0.47;100.00;100619.69;6215320;23;20331;-85
2022/12/09 06:27:45;;;;;;;;;;;;;;;0.46;100.00;100620.53;6214790;23;19912;-85
2022/12/09 06:30:11;;;;;;;;;;;;;;;0.46;100.00;100629.94;6214844;23;19919;-85
2022/12/09 06:32:36;;;;;;;;;;;;;;;0.44;100.00;100622.22;6215414;23;19912;-85
2022/12/09 06:35:01;;;;;;;;;;;;;;;0.43;100.00;100627.34;6213892;23;19912;-85
2022/12/09 06:37:26;;;;;;;;;;;;;;;0.41;100.00;100623.88;6214756;23;19995;-86
2022/12/09 06:39:51;;;;;;;;;;;;;;;0.41;100.00;100623.88;6215642;23;19912;-86
2022/12/09 06:42:17;;;;;;;;;;;;;;;0.40;100.00;100627.28;6214171;23;19947;-85
2022/12/09 06:44:43;;;;;;;;;;;;;;;0.40;100.00;100625.59;6215535;23;19995;-85
2022/12/09 06:47:08;;;;;;;;;;;;;;;0.39;100.00;100621.31;6215477;23;19932;-85
2022/12/09 06:49:33;;;;;;;;;;;;;;;0.40;100.00;100617.88;6214671;23;20270;-85
2022/12/09 06:51:58;;;;;;;;;;;;;;;0.39;100.00;100621.31;6215315;23;19991;-85
2022/12/09 06:54:24;;;;;;;;;;;;;;;0.39;100.00;100628.09;6215251;23;19915;-85
2022/12/09 06:56:49;;;;;;;;;;;;;;;0.38;100.00;100626.41;6214601;23;19915;-85
2022/12/09 06:59:14;;;;;;;;;;;;;;;0.37;100.00;100624.69;6214941;23;19916;-85
2022/12/09 07:01:40;;;;;;;;;;;;;;;0.37;100.00;100619.56;6215221;23;20247;-85
2022/12/09 07:04:05;;;;;;;;;;;;;;;0.38;100.00;100621.28;6214430;23;20263;-85
2022/12/09 07:06:30;;;;;;;;;;;;;;;0.37;100.00;100628.09;6214969;23;19950;-85
2022/12/09 07:08:57;;;;;;;;;;;;;;;0.36;100.00;100623.81;6215536;23;19990;-85
2022/12/09 07:11:22;;;;;;;;;;;;;;;0.37;100.00;100627.25;6214212;23;19965;-85
2022/12/09 07:13:47;;;;;;;;;;;;;;;0.37;100.00;100629.81;6215686;23;19986;-85
2022/12/09 07:16:13;;;;;;;;;;;;;;;0.38;100.00;100634.09;6214889;23;20224;-85
2022/12/09 07:18:38;;;;;;;;;;;;;;;0.37;100.00;100635.78;6214302;23;19916;-85
2022/12/09 07:21:07;;;;;;;;;;;;;;;0.38;100.00;100639.22;6215579;23;19942;-85
2022/12/09 07:23:33;;;;;;;;;;;;;;;0.38;100.00;100634.94;6214883;23;19912;-85
2022/12/09 07:26:00;;;;;;;;;;;;;;;0.40;100.00;100645.25;6214784;23;19954;-86
2022/12/09 07:28:26;;;;;;;;;;;;;;;0.39;100.00;100646.94;6214837;23;19943;-85
2022/12/09 07:30:51;;;;;;;;;;;;;;;0.42;100.00;100657.22;6214935;23;20316;-85
2022/12/09 07:33:16;;;;;;;;;;;;;;;0.44;100.00;100655.56;6215066;23;19938;-85
2022/12/09 07:35:41;;;;;;;;;;;;;;;0.47;100.00;100645.34;6215102;23;20324;-84
2022/12/09 07:38:06;;;;;;;;;;;;;;;0.46;100.00;100642.78;6214613;23;19919;-84
2022/12/09 07:40:32;;;;;;;;;;;;;;;0.46;100.00;100648.75;6214919;23;19966;-85
2022/12/09 07:42:57;;;;;;;;;;;;;;;0.45;100.00;100647.00;6215249;23;20343;-85
2022/12/09 07:45:22;;;;;;;;;;;;;;;0.44;100.00;100654.69;6214275;23;20312;-85
2022/12/09 07:47:47;;;;;;;;;;;;;;;0.45;100.00;100664.13;6214541;23;19978;-85
2022/12/09 07:50:12;;;;;;;;;;;;;;;0.45;100.00;100658.97;6214469;23;19931;-85
2022/12/09 07:52:37;;;;;;;;;;;;;;;0.44;100.00;100659.81;6213671;23;20400;-84
2022/12/09 07:55:03;;;;;;;;;;;;;;;0.44;100.00;100665.81;6217059;23;19935;-84
2022/12/09 07:57:28;;;;;;;;;;;;;;;0.44;100.00;100668.38;6216525;23;19951;-85
2022/12/09 07:59:55;;;;;;;;;;;;;;;0.44;100.00;100665.81;6215848;23;20255;-85
2022/12/09 08:02:20;;;;;;;;;;;;;;;0.46;100.00;100664.16;6215878;23;19919;-85
2022/12/09 08:04:45;;;;;;;;;;;;;;;0.49;100.00;100663.34;6216444;23;19912;-85
2022/12/09 08:07:11;;;;;;;;;;;;;;;0.50;100.00;100666.75;6214577;23;20263;-85
2022/12/09 08:09:36;;;;;;;;;;;;;;;0.51;100.00;100669.34;6216751;23;19979;-85
2022/12/09 08:12:01;;;;;;;;;;;;;;;0.53;100.00;100666.81;6216551;23;20309;-85
2022/12/09 08:14:26;;;;;;;;;;;;;;;0.55;100.00;100665.97;6215249;23;19912;-86
2022/12/09 08:16:51;;;;;;;;;;;;;;;0.57;100.00;100661.72;6217077;23;19911;-84
2022/12/09 08:19:17;;;;;;;;;;;;;;;0.59;100.00;100662.63;6216282;23;19912;-83
2022/12/09 08:21:42;;;;;;;;;;;;;;;0.58;100.00;100658.31;6215737;23;19931;-83
2022/12/09 08:24:09;;;;;;;;;;;;;;;0.59;100.00;100657.50;6215461;23;19950;-83
2022/12/09 08:26:36;;;;;;;;;;;;;;;0.58;100.00;100665.16;6215632;23;19982;-83
2022/12/09 08:29:05;;;;;;;;;;;;;;;0.59;100.00;100660.06;6215657;23;19931;-82
2022/12/09 08:31:30;;;;;;;;;;;;;;;0.61;100.00;100666.06;6216148;23;20374;-83
2022/12/09 08:33:55;;;;;;;;;;;;;;;0.62;100.00;100662.66;6216535;23;19934;-83
2022/12/09 08:36:22;;;;;;;;;;;;;;;0.61;100.00;100662.63;6215738;23;20320;-84
2022/12/09 08:38:47;;;;;;;;;;;;;;;0.62;100.00;100662.66;6216290;23;19967;-83
2022/12/09 08:41:18;;;;;;;;;;;;;;;0.62;100.00;100654.97;6215693;23;19907;-85
2022/12/09 08:43:43;;;;;;;;;;;;;;;0.63;100.00;100655.84;6216138;23;20324;-85
2022/12/09 08:46:09;;;;;;;;;;;;;;;0.64;100.00;100665.25;6216171;23;19912;-84
2022/12/09 08:48:35;;;;;;;;;;;;;;;0.62;100.00;100661.78;6213531;23;20268;-85
2022/12/09 08:51:01;;;;;;;;;;;;;;;0.60;100.00;100658.34;6215913;23;19950;-84
2022/12/09 08:53:26;;;;;;;;;;;;;;;0.51;100.00;100653.94;6215607;23;19916;-84
2022/12/09 08:55:51;;;;;;;;;;;;;;;0.41;100.00;100662.34;6215198;23;19970;-84
2022/12/09 08:58:16;;;;;;;;;;;;;;;0.36;100.00;100661.41;6215052;23;20296;-83
2022/12/09 09:00:41;;;;;;;;;;;;;;;0.36;100.00;100658.84;6215390;23;20339;-86
2022/12/09 09:03:07;;;;;;;;;;;;;;;0.35;100.00;100657.13;6215812;23;19991;-84
2022/12/09 09:05:32;;;;;;;;;;;;;;;0.36;100.00;100663.97;6214716;23;19962;-83
2022/12/09 09:07:58;;;;;;;;;;;;;;;0.39;100.00;100669.16;6215223;23;20228;-85
2022/12/09 09:10:23;;;;;;;;;;;;;;;0.49;100.00;100668.47;6213921;23;20289;-83
2022/12/09 09:12:48;;;;;;;;;;;;;;;0.60;100.00;100668.63;6216026;23;19987;-83
2022/12/09 09:15:14;;;;;;;;;;;;;;;0.67;100.00;100670.41;6216074;23;19912;-82
2022/12/09 09:17:39;;;;;;;;;;;;;;;0.75;100.00;100668.81;6215189;23;19912;-82
2022/12/09 09:20:05;;;;;;;;;;;;;;;0.82;100.00;100673.22;6215548;23;19912;-82
2022/12/09 09:22:30;;;;;;;;;;;;;;;0.91;100.00;100668.16;6215146;23;19915;-83
2022/12/09 09:24:55;;;;;;;;;;;;;;;1.08;100.00;100672.66;6214844;23;20244;-83
2022/12/09 09:27:21;;;;;;;;;;;;;;;1.31;100.00;100670.41;6215954;23;19966;-83
2022/12/09 09:29:46;;;;;;;;;;;;;;;1.50;100.00;100674.88;6216296;23;19998;-83
2022/12/09 09:32:11;;;;;;;;;;;;;;;1.72;100.00;100672.53;6214709;23;20337;-87
2022/12/09 09:34:36;;;;;;;;;;;;;;;1.92;100.00;100677.84;6216209;23;19912;-87
2022/12/09 09:37:02;;;;;;;;;;;;;;;1.95;100.00;100672.75;6216286;23;20383;-87
2022/12/09 09:39:27;;;;;;;;;;;;;;;1.86;100.00;100670.94;6214675;23;19916;-85
2022/12/09 09:41:52;;;;;;;;;;;;;;;1.75;100.00;100667.41;6215358;23;20193;-89
2022/12/09 09:44:26;;;;;;;;;;;;;;;1.60;100.00;100668.13;6215076;23;19919;-87
2022/12/09 09:46:52;;;;;;;;;;;;;;;1.47;100.00;100673.97;6214703;23;19912;-87
2022/12/09 09:49:17;;;;;;;;;;;;;;;1.32;100.00;100672.09;6214924;23;19919;-87
2022/12/09 09:51:42;;;;;;;;;;;;;;;1.21;100.00;100676.25;6214972;23;19947;-86
2022/12/09 09:54:10;;;;;;;;;;;;;;;1.08;100.00;100673.56;6215232;23;19912;-85
2022/12/09 09:56:44;;;;;;;;;;;;;;;0.87;100.00;100668.97;6214782;23;19999;-84
2022/12/09 09:59:18;;;;;;;;;;;;;;;0.67;100.00;100671.28;6214149;23;19992;-88
2022/12/09 10:01:49;;;;;;;;;;;;;;;0.55;100.00;100673.66;6215227;23;19912;-85
2022/12/09 10:04:14;;;;;;;;;;;;;;;0.46;100.00;100669.28;6215889;23;19912;-85
2022/12/09 10:06:45;;;;;;;;;;;;;;;0.38;100.00;100667.44;6215008;23;19912;-86
2022/12/09 10:09:13;;;;;;;;;;;;;;;0.30;100.00;100669.88;6215135;23;20333;-86
2022/12/09 10:11:39;;;;;;;;;;;;;;;0.28;100.00;100676.69;6215103;23;19990;-86
2022/12/09 10:14:23;;;;;;;;;;;;;;;0.35;100.00;100681.06;6213653;23;19943;-86
2022/12/09 10:16:59;;;;;;;;;;;;;;;0.58;100.00;100668.56;6214356;23;19989;-86
2022/12/09 10:19:33;;;;;;;;;;;;;;;0.88;100.00;100667.28;6215414;23;19914;-85
2022/12/09 10:22:06;;;;;;;;;;;;;;;1.17;100.00;100670.22;6214955;23;19943;-86
2022/12/09 10:24:33;;;;;;;;;;;;;;;1.52;100.00;100665.47;6214970;23;20275;-85
2022/12/09 10:27:24;;;;;;;;;;;;;;;1.67;100.00;100663.91;6214404;23;19918;-86
2022/12/09 10:29:54;;;;;;;;;;;;;;;1.50;100.00;100656.88;6191250;23;19908;-86
2022/12/09 10:32:20;;;;;;;;;;;;;;;1.33;100.00;100668.69;6215621;23;19916;-85
2022/12/09 10:34:46;;;;;;;;;;;;;;;1.12;100.00;100670.16;6214958;23;20260;-86
2022/12/09 10:37:32;;;;;;;;;;;;;;;0.99;100.00;100668.28;6215431;23;20363;-85
2022/12/09 10:40:13;;;;;;;;;;;;;;;0.84;100.00;100668.94;6214828;23;20444;-85
2022/12/09 10:45:27;;;;;;;;;;;;;;;0.56;100.00;100661.72;6214907;23;19919;-85
2022/12/09 10:47:53;;;;;;;;;;;;;;;0.48;100.00;100674.41;6215107;23;19911;-85
2022/12/09 10:50:27;;;;;;;;;;;;;;;0.40;100.00;100670.88;6214558;23;19912;-86
2022/12/09 10:52:52;;;;;;;;;;;;;;;0.40;100.00;100671.75;6215235;23;19939;-85
2022/12/09 10:55:28;;;;;;;;;;;;;;;0.45;100.00;100671.81;6214298;23;20317;-85
2022/12/09 10:58:08;;;;;;;;;;;;;;;0.53;100.00;100661.69;6215284;23;19943;-84
2022/12/09 11:00:33;;;;;;;;;;;;;;;0.68;100.00;100657.59;6214819;23;19947;-84
2022/12/09 11:02:58;;;;;;;;;;;;;;;0.90;100.00;100657.91;6214559;23;19927;-84
2022/12/09 11:05:26;;;;;;;;;;;;;;;1.06;100.00;100658.97;6214281;23;20010;-84
2022/12/09 11:07:52;;;;;;;;;;;;;;;1.14;100.00;100653.09;6214746;23;19912;-84
2022/12/09 11:10:19;;;;;;;;;;;;;;;1.16;100.00;100661.66;6213914;23;19912;-84
2022/12/09 11:12:45;;;;;;;;;;;;;;;1.21;100.00;100659.16;6214646;23;19912;-83
2022/12/09 11:15:10;;;;;;;;;;;;;;;1.20;100.00;100651.41;6215233;23;20002;-83
2022/12/09 11:17:38;;;;;;;;;;;;;;;1.10;100.00;100659.00;6214459;23;20336;-84
2022/12/09 11:20:03;;;;;;;;;;;;;;;1.03;100.00;100659.78;6215429;23;19912;-83
2022/12/09 11:22:38;;;;;;;;;;;;;;;1.02;100.00;100654.63;6215206;23;19927;-83
2022/12/09 11:25:07;;;;;;;;;;;;;;;1.04;100.00;100652.94;6214597;23;19912;-83
2022/12/09 11:27:33;;;;;;;;;;;;;;;1.09;100.00;100659.84;6216030;23;19912;-83
2022/12/09 11:30:18;;;;;;;;;;;;;;;1.13;100.00;100648.78;6216747;23;19974;-83
2022/12/09 11:32:53;;;;;;;;;;;;;;;1.17;100.00;100663.38;6216484;23;19918;-83
2022/12/09 11:35:19;;;;;;;;;;;;;;;1.22;100.00;100654.88;6215674;23;20272;-83
2022/12/09 11:37:46;;;;;;;;;;;;;;;1.24;100.00;100654.03;6215657;23;19912;-83
2022/12/09 11:40:18;;;;;;;;;;;;;;;1.25;100.00;100652.34;6215972;23;20205;-83
2022/12/09 11:42:51;;;;;;;;;;;;;;;1.29;100.00;100646.38;6216354;23;19912;-83
2022/12/09 11:45:20;;;;;;;;;;;;;;;1.34;100.00;100647.28;6215262;23;19919;-83
2022/12/09 11:47:45;;;;;;;;;;;;;;;1.44;100.00;100644.00;6216893;23;19916;-83
2022/12/09 11:50:31;;;;;;;;;;;;;;;1.49;100.00;100644.88;6216755;23;19954;-83
2022/12/09 11:53:11;;;;;;;;;;;;;;;1.63;100.00;100642.44;6215642;23;19927;-83
2022/12/09 11:55:40;;;;;;;;;;;;;;;1.67;100.00;100648.47;6216312;23;19963;-83
2022/12/09 11:58:09;;;;;;;;;;;;;;;1.58;100.00;100644.13;6216669;23;19916;-83
2022/12/09 12:00:44;;;;;;;;;;;;;;;1.57;100.00;100644.97;6216119;23;19911;-82
2022/12/09 12:03:18;;;;;;;;;;;;;;;1.59;100.00;100643.28;6216559;23;19912;-81
2022/12/09 12:05:44;;;;;;;;;;;;;;;1.61;100.00;100649.31;6216153;23;19940;-83
2022/12/09 12:08:21;;;;;;;;;;;;;;;1.61;100.00;100645.03;6217083;23;19912;-82
2022/12/09 12:10:58;;;;;;;;;;;;;;;1.58;100.00;100649.28;6215320;23;19912;-83
2022/12/09 12:13:37;;;;;;;;;;;;;;;1.54;100.00;100652.66;6214833;23;20066;-84
2022/12/09 12:16:05;;;;;;;;;;;;;;;1.51;100.00;100644.91;6215560;23;19918;-84
2022/12/09 12:18:38;;;;;;;;;;;;;;;1.48;100.00;100638.03;6215285;23;19931;-83
2022/12/09 12:21:06;;;;;;;;;;;;;;;1.48;100.00;100632.03;6216046;23;19934;-83
2022/12/09 12:23:31;;;;;;;;;;;;;;;1.50;100.00;100638.03;6216654;23;19983;-83
2022/12/09 12:26:08;;;;;;;;;;;;;;;1.48;100.00;100626.91;6216271;23;19947;-83
2022/12/09 12:28:48;;;;;;;;;;;;;;;1.50;100.00;100635.47;6215622;23;19983;-83
2022/12/09 12:31:22;;;;;;;;;;;;;;;1.52;100.00;100644.06;6216276;23;19939;-83
2022/12/09 12:34:02;;;;;;;;;;;;;;;1.53;100.00;100644.06;6215240;23;20339;-83
2022/12/09 12:36:46;;;;;;;;;;;;;;;1.48;100.00;100637.19;6215836;23;19912;-85
2022/12/09 12:39:30;;;;;;;;;;;;;;;1.46;100.00;100636.28;6215164;23;19958;-81